Time;durP1;ratioP1;P1;durP2;ratioP2;P2;SDS_P1;SDS_P2;PMS_P1;PMS_P2;Temp;Humidity;BMP_temperature;BMP_pressure;BME280_temperature;BME280_humidity;BME280_pressure;Samples;Min_cycle;Max_cycle;Signal;HPM_P1;HPM_P2
2021/05/11 00:01:58;;;;;;;3.00;0.95;;;;;;;-142.37;100.00;59669.53;5013193;28;20022;-58
2021/05/11 00:04:23;;;;;;;1.13;0.70;;;;;;;-142.37;100.00;59669.53;5012681;28;20030;-58
2021/05/11 00:06:48;;;;;;;1.52;0.50;;;;;;;-142.37;100.00;59669.53;5013159;28;20144;-58
2021/05/11 00:09:14;;;;;;;1.48;0.70;;;;;;;-142.37;100.00;59669.53;5012953;28;20381;-58
2021/05/11 00:11:39;;;;;;;1.38;0.68;;;;;;;-142.37;100.00;59669.53;5012445;28;20105;-58
2021/05/11 00:14:06;;;;;;;3.63;0.98;;;;;;;-142.37;100.00;59669.53;5013075;28;20033;-58
2021/05/11 00:16:32;;;;;;;2.15;0.75;;;;;;;-142.37;100.00;59669.53;5012756;28;20021;-58
2021/05/11 00:18:58;;;;;;;2.67;0.88;;;;;;;-142.37;100.00;59669.53;5013116;28;20030;-58
2021/05/11 00:21:24;;;;;;;3.13;0.50;;;;;;;-142.37;100.00;59669.53;5012689;28;20046;-58
2021/05/11 00:23:50;;;;;;;4.32;1.17;;;;;;;-142.37;100.00;59669.53;5012897;28;20615;-58
2021/05/11 00:26:15;;;;;;;1.23;0.60;;;;;;;-142.37;100.00;59669.53;5012832;28;20037;-58
2021/05/11 00:28:40;;;;;;;3.50;0.93;;;;;;;-142.37;100.00;59669.53;5012638;28;20030;-58
2021/05/11 00:31:06;;;;;;;1.85;0.70;;;;;;;-142.37;100.00;59669.53;5012817;28;20026;-58
2021/05/11 00:33:31;;;;;;;1.05;0.55;;;;;;;-142.37;100.00;59669.53;5012485;28;20245;-58
2021/05/11 00:35:56;;;;;;;1.38;0.73;;;;;;;-142.37;100.00;59669.53;5012281;28;20481;-58
2021/05/11 00:38:21;;;;;;;2.28;0.90;;;;;;;-142.37;100.00;59669.53;5012665;28;20030;-58
2021/05/11 00:40:47;;;;;;;4.53;0.95;;;;;;;-142.37;100.00;59669.53;5012991;28;20026;-58
2021/05/11 00:43:12;;;;;;;2.42;0.60;;;;;;;-142.37;100.00;59669.53;5012871;28;20026;-58
2021/05/11 00:45:37;;;;;;;4.90;0.75;;;;;;;-142.37;100.00;59669.53;5012644;28;20029;-58
2021/05/11 00:48:03;;;;;;;1.27;0.85;;;;;;;-142.37;100.00;59669.53;5012831;28;20049;-58
2021/05/11 00:50:28;;;;;;;1.98;0.90;;;;;;;-142.37;100.00;59669.53;5004628;28;20034;-58
2021/05/11 00:52:54;;;;;;;1.42;0.73;;;;;;;-142.37;100.00;59669.53;4992915;28;20441;-58
2021/05/11 00:55:19;;;;;;;2.38;0.73;;;;;;;-142.37;100.00;59669.53;4993042;28;20030;-58
2021/05/11 00:57:46;;;;;;;2.55;0.98;;;;;;;-142.37;100.00;59669.53;4992988;28;20045;-58
2021/05/11 01:00:12;;;;;;;1.95;0.90;;;;;;;-142.37;100.00;59669.53;4993159;28;20018;-58
2021/05/11 01:02:37;;;;;;;1.35;0.60;;;;;;;-142.37;100.00;59669.53;4991392;28;20036;-58
2021/05/11 01:05:05;;;;;;;2.60;1.40;;;;;;;-142.37;100.00;59669.53;5010858;28;20030;-58
2021/05/11 01:07:30;;;;;;;1.88;0.85;;;;;;;-142.37;100.00;59669.53;5012123;28;20084;-58
2021/05/11 01:09:57;;;;;;;0.77;0.68;;;;;;;-142.37;100.00;59669.53;5012626;28;20057;-57
2021/05/11 01:12:22;;;;;;;2.28;0.90;;;;;;;-142.37;100.00;59669.53;5012281;28;20121;-58
2021/05/11 01:14:48;;;;;;;4.00;0.98;;;;;;;-142.37;100.00;59669.53;5012425;28;20463;-58
2021/05/11 01:17:23;;;;;;;1.35;0.60;;;;;;;-142.37;100.00;59669.53;5012553;28;20029;-58
2021/05/11 01:19:51;;;;;;;2.08;0.75;;;;;;;-142.37;100.00;59669.53;5012268;28;20108;-58
2021/05/11 01:22:30;;;;;;;1.80;0.80;;;;;;;-142.37;100.00;59669.53;5013397;28;20359;-58
2021/05/11 01:25:05;;;;;;;2.40;0.93;;;;;;;-142.37;100.00;59669.53;5016168;28;20026;-58
2021/05/11 01:33:12;;;;;;;1.35;0.70;;;;;;;-142.37;100.00;59669.53;5011786;28;20033;-58
2021/05/11 01:44:24;;;;;;;1.73;0.80;;;;;;;-142.37;100.00;59669.53;5015472;28;20064;-58
2021/05/11 01:47:23;;;;;;;2.60;0.77;;;;;;;-142.37;100.00;59669.53;5015741;28;20026;-58
2021/05/11 01:50:03;;;;;;;1.17;0.60;;;;;;;-142.37;100.00;59669.53;5015704;28;20029;-58
2021/05/11 01:52:40;;;;;;;2.42;0.82;;;;;;;-142.37;100.00;59669.53;5015344;28;20072;-57
2021/05/11 02:17:58;;;;;;;0.73;0.70;;;;;;;-142.37;100.00;59669.53;5015211;28;20040;-58
2021/05/11 02:24:59;;;;;;;1.50;0.70;;;;;;;-142.37;100.00;59669.53;5015626;28;20037;-59
2021/05/11 02:27:25;;;;;;;1.92;0.90;;;;;;;-142.37;100.00;59669.53;5014882;28;20037;-58
2021/05/11 02:29:50;;;;;;;1.65;0.68;;;;;;;-142.37;100.00;59669.53;5014952;28;20029;-59
2021/05/11 02:32:17;;;;;;;1.17;0.70;;;;;;;-142.37;100.00;59669.53;5014598;28;20026;-58
2021/05/11 02:34:43;;;;;;;1.77;0.57;;;;;;;-142.37;100.00;59669.53;5013880;28;20482;-58
2021/05/11 02:37:08;;;;;;;2.05;0.80;;;;;;;-142.37;100.00;59669.53;5014734;28;20058;-58
2021/05/11 02:39:33;;;;;;;1.48;0.75;;;;;;;-142.37;100.00;59669.53;5014605;28;20092;-58
2021/05/11 02:41:59;;;;;;;1.95;0.70;;;;;;;-142.37;100.00;59669.53;5014808;28;20449;-58
2021/05/11 02:44:24;;;;;;;1.50;0.68;;;;;;;-142.37;100.00;59669.53;5014448;28;20064;-58
2021/05/11 02:46:49;;;;;;;1.92;0.80;;;;;;;-142.37;100.00;59669.53;5014400;28;20045;-58
2021/05/11 02:49:17;;;;;;;2.35;1.10;;;;;;;-142.37;100.00;59669.53;5014588;28;20058;-58
2021/05/11 02:51:42;;;;;;;1.70;0.73;;;;;;;-142.37;100.00;59669.53;5014380;28;20022;-58
2021/05/11 02:54:07;;;;;;;1.67;0.70;;;;;;;-142.37;100.00;59669.53;5014833;28;20028;-58
2021/05/11 02:56:33;;;;;;;2.08;0.90;;;;;;;-142.37;100.00;59669.53;5014179;28;20484;-58
2021/05/11 02:58:58;;;;;;;2.22;1.00;;;;;;;-142.37;100.00;59669.53;5014477;28;20034;-58
2021/05/11 03:01:23;;;;;;;0.85;0.70;;;;;;;-142.37;100.00;59669.53;5014217;28;20026;-59
2021/05/11 03:03:49;;;;;;;2.05;0.70;;;;;;;-142.37;100.00;59669.53;5014067;28;20033;-58
2021/05/11 03:06:14;;;;;;;2.83;0.77;;;;;;;-142.37;100.00;59669.53;5014272;28;20052;-58
2021/05/11 03:08:42;;;;;;;2.25;0.88;;;;;;;-142.37;100.00;59669.53;5012741;28;20026;-59
2021/05/11 03:11:07;;;;;;;1.40;0.68;;;;;;;-142.37;100.00;59669.53;5014232;28;20056;-58
2021/05/11 03:13:33;;;;;;;2.13;0.70;;;;;;;-142.37;100.00;59669.53;5014005;28;20453;-58
2021/05/11 03:15:58;;;;;;;2.58;0.80;;;;;;;-142.37;100.00;59669.53;5014172;28;20032;-59
2021/05/11 03:18:23;;;;;;;1.20;0.60;;;;;;;-142.37;100.00;59669.53;5013857;28;20022;-59
2021/05/11 03:20:49;;;;;;;0.80;0.68;;;;;;;-142.37;100.00;59669.53;5013835;28;20091;-58
2021/05/11 03:23:14;;;;;;;1.85;0.80;;;;;;;-142.37;100.00;59669.53;5014031;28;20026;-58
2021/05/11 03:25:39;;;;;;;3.38;0.90;;;;;;;-142.37;100.00;59669.53;5013717;28;20049;-58
2021/05/11 03:28:04;;;;;;;1.55;0.75;;;;;;;-142.37;100.00;59669.53;5013841;28;20453;-59
2021/05/11 03:30:30;;;;;;;1.48;0.63;;;;;;;-142.37;100.00;59669.53;5013572;28;20029;-58
2021/05/11 03:32:55;;;;;;;2.45;0.90;;;;;;;-142.37;100.00;59669.53;5013479;28;20030;-58
2021/05/11 03:35:20;;;;;;;2.45;1.25;;;;;;;-142.37;100.00;59669.53;5013663;28;20378;-59
2021/05/11 03:37:45;;;;;;;2.08;1.10;;;;;;;-142.37;100.00;59669.53;5013569;28;20105;-58
2021/05/11 03:40:11;;;;;;;1.00;0.70;;;;;;;-142.37;100.00;59669.53;5013817;28;20030;-58
2021/05/11 03:42:41;;;;;;;2.55;0.40;;;;;;;-142.37;100.00;59669.53;5013355;28;20018;-58
2021/05/11 03:45:09;;;;;;;1.02;0.47;;;;;;;-142.37;100.00;59669.53;5012870;28;20076;-58
2021/05/11 03:47:44;;;;;;;0.88;0.57;;;;;;;-142.37;100.00;59669.53;5013320;28;20049;-58
2021/05/11 03:50:12;;;;;;;2.63;0.68;;;;;;;-142.37;100.00;59669.53;5013536;28;20026;-58
2021/05/11 03:52:37;;;;;;;2.38;0.75;;;;;;;-142.37;100.00;59669.53;5013160;28;20080;-58
2021/05/11 03:55:03;;;;;;;1.38;0.68;;;;;;;-142.37;100.00;59669.53;5013474;28;20026;-59
2021/05/11 03:57:28;;;;;;;0.65;0.50;;;;;;;-142.37;100.00;59669.53;5013242;28;20073;-58
2021/05/11 03:59:53;;;;;;;1.45;0.60;;;;;;;-142.37;100.00;59669.53;5013376;28;20474;-58
2021/05/11 04:02:19;;;;;;;2.28;0.50;;;;;;;-142.37;100.00;59669.53;5012640;28;20026;-58
2021/05/11 04:04:44;;;;;;;1.42;0.90;;;;;;;-142.37;100.00;59669.53;5012707;28;20033;-58
2021/05/11 04:07:12;;;;;;;1.17;0.47;;;;;;;-142.37;100.00;59669.53;5012084;28;20017;-58
2021/05/11 04:10:00;;;;;;;0.88;0.43;;;;;;;-142.37;100.00;59669.53;5013043;28;20026;-59
2021/05/11 04:16:12;;;;;;;1.45;0.43;;;;;;;-142.37;100.00;59669.53;5013130;28;20049;-59
2021/05/11 04:17:44;;;;;;;1.33;0.60;;;;;;;-142.37;100.00;59669.53;5012869;28;20428;-58
2021/05/11 04:20:11;;;;;;;1.25;0.50;;;;;;;-142.37;100.00;59669.53;5012968;28;20746;-58
2021/05/11 04:22:37;;;;;;;1.85;0.60;;;;;;;-142.37;100.00;59669.53;5012759;28;20450;-59
2021/05/11 04:25:03;;;;;;;2.20;0.60;;;;;;;-142.37;100.00;59669.53;5013039;28;20026;-58
2021/05/11 04:27:28;;;;;;;1.10;0.63;;;;;;;-142.37;100.00;59669.53;5012775;28;20036;-58
2021/05/11 04:29:58;;;;;;;1.35;0.73;;;;;;;-142.37;100.00;59669.53;5011635;28;20489;-59
2021/05/11 04:32:24;;;;;;;0.90;0.60;;;;;;;-142.37;100.00;59669.53;5012473;28;20025;-58
2021/05/11 04:34:49;;;;;;;2.05;0.40;;;;;;;-142.37;100.00;59669.53;5012742;28;20392;-58
2021/05/11 04:37:14;;;;;;;0.57;0.40;;;;;;;-142.37;100.00;59669.53;5012888;28;20404;-58
2021/05/11 04:39:39;;;;;;;0.60;0.60;;;;;;;-142.37;100.00;59669.53;5012760;28;20030;-58
2021/05/11 04:42:05;;;;;;;1.52;0.60;;;;;;;-142.37;100.00;59669.53;5012857;28;20014;-59
2021/05/11 04:44:32;;;;;;;1.65;0.47;;;;;;;-142.37;100.00;59669.53;5012568;28;20258;-58
2021/05/11 04:47:07;;;;;;;2.00;0.68;;;;;;;-142.37;100.00;59669.53;5012765;28;20041;-59
2021/05/11 04:49:33;;;;;;;1.00;0.40;;;;;;;-142.37;100.00;59669.53;5012592;28;20049;-59
2021/05/11 04:51:58;;;;;;;1.67;0.80;;;;;;;-142.37;100.00;59669.53;5012753;28;20092;-58
2021/05/11 04:54:24;;;;;;;2.47;0.40;;;;;;;-142.37;100.00;59669.53;5012358;28;20489;-59
2021/05/11 04:56:49;;;;;;;1.23;0.50;;;;;;;-142.37;100.00;59669.53;5014572;28;20038;-58
2021/05/11 04:59:15;;;;;;;0.90;0.70;;;;;;;-142.37;100.00;59669.53;5016626;28;20437;-58
2021/05/11 05:01:43;;;;;;;1.23;0.70;;;;;;;-142.37;100.00;59669.53;5016528;28;20029;-58
2021/05/11 05:04:09;;;;;;;1.38;0.65;;;;;;;-142.37;100.00;59669.53;5016252;28;20457;-58
2021/05/11 05:06:35;;;;;;;1.38;0.43;;;;;;;-142.37;100.00;59669.53;5016063;28;20022;-59
2021/05/11 05:09:00;;;;;;;1.52;0.60;;;;;;;-142.37;100.00;59669.53;5016553;28;20109;-58
2021/05/11 05:11:26;;;;;;;1.30;0.40;;;;;;;-142.37;100.00;59669.53;5016195;28;20058;-58
2021/05/11 05:13:51;;;;;;;0.75;0.40;;;;;;;-142.37;100.00;59669.53;5016405;28;20033;-58
2021/05/11 05:16:16;;;;;;;0.35;0.32;;;;;;;-142.37;100.00;59669.53;5016310;28;20108;-58
2021/05/11 05:18:41;;;;;;;1.70;0.70;;;;;;;-142.37;100.00;59669.53;5016111;28;20042;-59
2021/05/11 05:21:08;;;;;;;2.10;0.60;;;;;;;-142.37;100.00;59669.53;5016098;28;20085;-58
2021/05/11 05:23:45;;;;;;;1.83;0.68;;;;;;;-142.37;100.00;59669.53;5015994;28;20021;-58
2021/05/11 05:26:12;;;;;;;0.88;0.57;;;;;;;-142.37;100.00;59669.53;5014915;28;20101;-59
2021/05/11 05:28:40;;;;;;;0.98;0.50;;;;;;;-142.37;100.00;59669.53;5015815;28;20022;-59
2021/05/11 05:31:05;;;;;;;0.70;0.38;;;;;;;-142.37;100.00;59669.53;5016058;28;20025;-59
2021/05/11 05:33:36;;;;;;;0.85;0.40;;;;;;;-142.37;100.00;59669.53;5015336;28;20078;-58
2021/05/11 05:36:02;;;;;;;1.27;0.50;;;;;;;-142.37;100.00;59669.53;5015771;28;20527;-58
2021/05/11 05:38:28;;;;;;;1.35;0.80;;;;;;;-142.37;100.00;59669.53;5015717;28;20117;-58
2021/05/11 05:41:19;;;;;;;1.45;0.40;;;;;;;-142.37;100.00;59669.53;5015942;28;20026;-58
2021/05/11 05:43:42;;;;;;;0.95;0.50;;;;;;;-142.37;100.00;59669.53;5015517;28;20109;-59
2021/05/11 05:46:07;;;;;;;0.90;0.40;;;;;;;-142.37;100.00;59669.53;5015758;28;20112;-58
2021/05/11 05:48:33;;;;;;;1.60;0.30;;;;;;;-142.37;100.00;59669.53;5015365;28;20038;-59
2021/05/11 05:51:00;;;;;;;1.20;0.40;;;;;;;-142.37;100.00;59669.53;5014380;28;20034;-58
2021/05/11 05:53:34;;;;;;;1.25;0.30;;;;;;;-142.37;100.00;59669.53;5015311;28;20477;-58
2021/05/11 05:55:59;;;;;;;2.67;0.52;;;;;;;-142.37;100.00;59669.53;5015590;28;20033;-59
2021/05/11 05:58:24;;;;;;;1.60;0.50;;;;;;;-142.37;100.00;59669.53;5015245;28;20359;-58
2021/05/11 06:00:54;;;;;;;0.70;0.40;;;;;;;-142.37;100.00;59669.53;5015023;28;20058;-59
2021/05/11 06:03:35;;;;;;;1.25;0.50;;;;;;;-142.37;100.00;59669.53;5015148;28;20017;-58
2021/05/11 06:06:01;;;;;;;2.28;0.43;;;;;;;-142.37;100.00;59669.53;5015394;28;20433;-58
2021/05/11 06:08:27;;;;;;;1.63;0.60;;;;;;;-142.37;100.00;59669.53;5014133;28;20049;-59
2021/05/11 06:13:41;;;;;;;0.77;0.52;;;;;;;-142.37;100.00;59669.53;5015040;28;20040;-59
2021/05/11 06:18:50;;;;;;;3.20;0.85;;;;;;;-142.37;100.00;59669.53;5015218;28;20040;-59
2021/05/11 06:21:16;;;;;;;1.85;0.60;;;;;;;-142.37;100.00;59669.53;5014956;28;20041;-59
2021/05/11 06:23:41;;;;;;;0.93;0.52;;;;;;;-142.37;100.00;59669.53;5014879;28;20026;-58
2021/05/11 06:26:07;;;;;;;1.10;0.50;;;;;;;-142.37;100.00;59669.53;5015114;28;20181;-58
2021/05/11 06:28:37;;;;;;;0.52;0.50;;;;;;;-142.37;100.00;59669.53;5014358;28;20049;-59
2021/05/11 06:31:03;;;;;;;0.98;0.40;;;;;;;-142.37;100.00;59669.53;5014954;28;20386;-58
2021/05/11 06:33:28;;;;;;;1.75;0.60;;;;;;;-142.37;100.00;59669.53;5014439;28;20057;-58
2021/05/11 06:35:54;;;;;;;0.47;0.40;;;;;;;-142.37;100.00;59669.53;5014645;28;20484;-58
2021/05/11 06:38:19;;;;;;;1.30;0.68;;;;;;;-142.37;100.00;59669.53;5014782;28;20031;-58
2021/05/11 06:40:44;;;;;;;1.30;0.60;;;;;;;-142.37;100.00;59669.53;5014597;28;20018;-58
2021/05/11 06:43:10;;;;;;;2.58;0.60;;;;;;;-142.37;100.00;59669.53;5014748;28;20036;-58
2021/05/11 06:48:19;;;;;;;0.75;0.38;;;;;;;-142.37;100.00;59669.53;5014643;28;20532;-58
2021/05/11 06:53:53;;;;;;;1.38;1.05;;;;;;;-142.37;100.00;59669.53;5014451;28;20030;-58
2021/05/11 06:56:22;;;;;;;0.80;0.43;;;;;;;-142.37;100.00;59669.53;5014067;28;20072;-58
2021/05/11 06:58:48;;;;;;;2.97;0.63;;;;;;;-142.37;100.00;59669.53;5014409;28;20476;-58
2021/05/11 07:01:20;;;;;;;0.75;0.47;;;;;;;-142.37;100.00;59669.53;5014188;28;20063;-58
2021/05/11 07:03:46;;;;;;;2.28;0.57;;;;;;;-142.37;100.00;59669.53;4994321;28;20057;-58
2021/05/11 07:06:15;;;;;;;1.55;0.82;;;;;;;-142.37;100.00;59669.53;5002733;28;20081;-58
2021/05/11 07:08:51;;;;;;;1.08;0.50;;;;;;;-142.37;100.00;59669.53;5011968;28;20030;-58
2021/05/11 07:13:44;;;;;;;1.67;0.68;;;;;;;-142.37;100.00;59669.53;5021191;28;20535;-59
2021/05/11 07:16:10;;;;;;;1.63;0.93;;;;;;;-142.37;100.00;59669.53;5018971;28;20117;-58
2021/05/11 07:18:35;;;;;;;1.20;0.43;;;;;;;-142.37;100.00;59669.53;5018790;28;20040;-59
2021/05/11 07:21:01;;;;;;;0.75;0.38;;;;;;;-142.37;100.00;59669.53;5020531;28;20493;-58
2021/05/11 07:23:28;;;;;;;0.30;0.30;;;;;;;-142.37;100.00;59669.53;5022891;28;20064;-58
2021/05/11 07:31:26;;;;;;;0.45;0.40;;;;;;;-142.37;100.00;59669.53;5004799;28;20441;-58
2021/05/11 07:33:53;;;;;;;1.30;0.50;;;;;;;-142.37;100.00;59669.53;4996280;28;20038;-59
2021/05/11 07:36:18;;;;;;;0.85;0.43;;;;;;;-142.37;100.00;59669.53;5000193;28;20030;-58
2021/05/11 07:38:45;;;;;;;1.20;0.50;;;;;;;-142.37;100.00;59669.53;5001832;28;20041;-58
2021/05/11 07:41:13;;;;;;;1.02;0.57;;;;;;;-142.37;100.00;59669.53;5001690;28;20074;-58
2021/05/11 07:43:39;;;;;;;0.63;0.30;;;;;;;-142.37;100.00;59669.53;5004101;28;20085;-58
2021/05/11 07:51:41;;;;;;;2.72;0.80;;;;;;;-142.37;100.00;59669.53;4997605;28;20134;-59
2021/05/11 08:17:47;;;;;;;1.02;0.50;;;;;;;-142.37;100.00;59669.53;5011791;28;20049;-58
2021/05/11 08:28:16;;;;;;;1.10;0.57;;;;;;;-142.37;100.00;59669.53;5009887;28;20084;-58
2021/05/11 08:30:41;;;;;;;0.93;0.60;;;;;;;-142.37;100.00;59669.53;5017857;28;20108;-57
2021/05/11 08:33:06;;;;;;;1.33;0.77;;;;;;;-142.37;100.00;59669.53;5019006;28;20108;-58
2021/05/11 08:35:32;;;;;;;2.72;0.82;;;;;;;-142.37;100.00;59669.53;5019687;28;20024;-59
2021/05/11 08:37:57;;;;;;;1.17;0.63;;;;;;;-142.37;100.00;59669.53;5020381;28;20033;-58
2021/05/11 08:40:24;;;;;;;1.27;0.80;;;;;;;-142.37;100.00;59669.53;5018500;28;20057;-58
2021/05/11 08:42:49;;;;;;;1.23;0.73;;;;;;;-142.37;100.00;59669.53;5019245;28;20029;-58
2021/05/11 08:45:15;;;;;;;1.45;0.68;;;;;;;-142.37;100.00;59669.53;5021100;28;20026;-58
2021/05/11 08:47:52;;;;;;;2.22;0.70;;;;;;;-142.37;100.00;59669.53;5019879;28;20105;-58
2021/05/11 08:50:44;;;;;;;0.90;0.60;;;;;;;-142.37;100.00;59669.53;5020331;28;20112;-58
2021/05/11 09:27:03;;;;;;;1.65;0.75;;;;;;;-142.37;100.00;59669.53;4989461;28;20128;-59
2021/05/11 10:00:12;;;;;;;1.77;0.80;;;;;;;-142.37;100.00;59669.53;5013422;28;20417;-60
2021/05/11 10:48:27;;;;;;;0.85;0.50;;;;;;;-142.37;100.00;59669.53;5016977;28;20030;-60
2021/05/11 10:50:55;;;;;;;0.82;0.30;;;;;;;-142.37;100.00;59669.53;4979801;28;20080;-60
2021/05/11 10:53:39;;;;;;;0.40;0.30;;;;;;;-142.37;100.00;59669.53;4981963;28;20521;-59
2021/05/11 10:56:24;;;;;;;0.40;0.30;;;;;;;-142.37;100.00;59669.53;4969859;28;20462;-59
2021/05/11 10:59:10;;;;;;;0.82;0.47;;;;;;;-142.37;100.00;59669.53;4961552;28;20027;-60
2021/05/11 11:01:36;;;;;;;0.60;0.28;;;;;;;-142.37;100.00;59669.53;4971972;28;20112;-58
2021/05/11 11:04:12;;;;;;;1.05;0.50;;;;;;;-142.37;100.00;59669.53;4971583;28;20131;-58
2021/05/11 11:06:59;;;;;;;0.98;0.45;;;;;;;-142.37;100.00;59669.53;4977042;28;20065;-58
2021/05/11 11:09:29;;;;;;;1.08;0.47;;;;;;;-142.37;100.00;59669.53;4971315;28;20042;-58
2021/05/11 11:11:55;;;;;;;0.45;0.30;;;;;;;-142.37;100.00;59669.53;4970525;28;20027;-58
2021/05/11 11:14:21;;;;;;;0.38;0.30;;;;;;;-142.37;100.00;59669.53;4971307;28;20125;-58
2021/05/11 11:16:49;;;;;;;0.55;0.43;;;;;;;-142.37;100.00;59669.53;4971411;28;20114;-58
2021/05/11 11:19:17;;;;;;;0.50;0.40;;;;;;;-142.37;100.00;59669.53;4971452;28;20043;-58
2021/05/11 11:24:27;;;;;;;0.60;0.40;;;;;;;-142.37;100.00;59669.53;4970935;28;20027;-59
2021/05/11 11:26:54;;;;;;;0.68;0.30;;;;;;;-142.37;100.00;59669.53;4979808;28;20176;-60
2021/05/11 11:29:22;;;;;;;0.80;0.40;;;;;;;-142.37;100.00;59669.53;5012676;28;20029;-57
2021/05/11 11:31:48;;;;;;;0.75;0.52;;;;;;;-142.37;100.00;59669.53;5011789;28;20042;-58
2021/05/11 11:34:23;;;;;;;0.77;0.38;;;;;;;-142.37;100.00;59669.53;5016261;28;20107;-58
2021/05/11 11:36:59;;;;;;;;;;;;;;;-142.37;100.00;59669.53;5011687;28;20108;-58
2021/05/11 11:39:30;;;;;;;2.00;1.00;;;;;;;-142.37;100.00;59669.53;5011291;28;19972;-58
2021/05/11 11:41:57;;;;;;;1.38;0.38;;;;;;;-142.37;100.00;59669.53;5012769;28;20033;-58
2021/05/11 11:44:25;;;;;;;1.85;0.50;;;;;;;-142.37;100.00;59669.53;5016905;28;20492;-59
2021/05/11 11:47:01;;;;;;;0.63;0.40;;;;;;;-142.37;100.00;59669.53;5012326;28;20029;-58
2021/05/11 11:49:29;;;;;;;1.27;0.60;;;;;;;-142.37;100.00;59669.53;5012305;28;20041;-58
2021/05/11 11:52:03;;;;;;;0.30;0.30;;;;;;;-142.37;100.00;59669.53;5008383;28;20033;-57
2021/05/11 11:54:42;;;;;;;0.65;0.40;;;;;;;-142.37;100.00;59669.53;5011499;28;20049;-58
2021/05/11 12:00:10;;;;;;;0.65;0.40;;;;;;;-142.37;100.00;59669.53;5011588;28;20052;-58
2021/05/11 12:02:37;;;;;;;0.45;0.30;;;;;;;-142.37;100.00;59669.53;5011788;28;20022;-58
2021/05/11 12:05:13;;;;;;;0.40;0.30;;;;;;;-142.37;100.00;59669.53;5012388;28;20022;-58
2021/05/11 12:07:55;;;;;;;0.30;0.25;;;;;;;-142.37;100.00;59669.53;5011412;28;20025;-58
2021/05/11 12:10:21;;;;;;;0.20;0.15;;;;;;;-142.37;100.00;59669.53;5011541;28;20030;-58
2021/05/11 12:12:47;;;;;;;1.02;0.38;;;;;;;-142.37;100.00;59669.53;5012094;28;20029;-58
2021/05/11 12:15:17;;;;;;;1.15;0.40;;;;;;;-142.37;100.00;59669.53;5011556;28;20034;-58
2021/05/11 12:17:45;;;;;;;1.13;0.40;;;;;;;-142.37;100.00;59669.53;5011682;28;20096;-57
2021/05/11 12:20:27;;;;;;;0.68;0.40;;;;;;;-142.37;100.00;59669.53;5011404;28;20556;-57
2021/05/11 12:23:14;;;;;;;0.75;0.30;;;;;;;-142.37;100.00;59669.53;5011803;28;20029;-58
2021/05/11 12:25:41;;;;;;;0.30;0.20;;;;;;;-142.37;100.00;59669.53;5011955;28;20029;-58
2021/05/11 12:28:07;;;;;;;1.83;0.80;;;;;;;-142.37;100.00;59669.53;5012678;28;20034;-58
2021/05/11 12:30:42;;;;;;;1.08;0.20;;;;;;;-142.37;100.00;59669.53;5012827;28;20048;-59
2021/05/11 12:33:10;;;;;;;0.82;0.47;;;;;;;-142.37;100.00;59669.53;5007032;28;20033;-58
2021/05/11 12:35:39;;;;;;;0.35;0.20;;;;;;;-142.37;100.00;59669.53;5008527;28;20033;-58
2021/05/11 12:38:32;;;;;;;0.95;0.32;;;;;;;-142.37;100.00;59669.53;5010883;28;20036;-59
2021/05/11 12:41:08;;;;;;;0.65;0.20;;;;;;;-142.37;100.00;59669.53;5011914;28;20188;-59
2021/05/11 12:43:44;;;;;;;0.63;0.10;;;;;;;-142.37;100.00;59669.53;5011320;28;20018;-59
2021/05/11 12:46:17;;;;;;;0.68;0.30;;;;;;;-142.37;100.00;59669.53;5009449;28;20116;-58
2021/05/11 12:48:54;;;;;;;0.35;0.13;;;;;;;-142.37;100.00;59669.53;5011327;28;20029;-58
2021/05/11 12:51:45;;;;;;;0.70;0.30;;;;;;;-142.37;100.00;59669.53;5009127;28;20037;-58
2021/05/11 12:54:25;;;;;;;1.15;0.40;;;;;;;-142.37;100.00;59669.53;5010545;28;20061;-59
2021/05/11 12:59:55;;;;;;;1.13;0.22;;;;;;;-142.37;100.00;59669.53;5016821;28;20064;-58
2021/05/11 13:13:50;;;;;;;0.82;0.20;;;;;;;-142.37;100.00;59669.53;4969902;28;20561;-57
2021/05/11 13:35:05;;;;;;;1.15;0.22;;;;;;;-142.37;100.00;59669.53;4911606;29;20071;-59
2021/05/11 13:37:30;;;;;;;0.40;0.20;;;;;;;-142.37;100.00;59669.53;4913269;29;20237;-60
2021/05/11 13:39:55;;;;;;;0.30;0.20;;;;;;;-142.37;100.00;59669.53;4942435;29;20085;-59
2021/05/11 13:42:22;;;;;;;1.00;0.20;;;;;;;-142.37;100.00;59669.53;4951455;29;20420;-59
2021/05/11 13:44:49;;;;;;;0.10;0.00;;;;;;;-142.37;100.00;59669.53;4951830;29;20430;-58
2021/05/11 13:47:14;;;;;;;0.82;0.20;;;;;;;-142.37;100.00;59669.53;4949006;29;20039;-59
2021/05/11 13:49:39;;;;;;;0.75;0.30;;;;;;;-142.37;100.00;59669.53;4953655;29;20347;-59
2021/05/11 13:52:05;;;;;;;0.50;0.20;;;;;;;-142.37;100.00;59669.53;4953928;29;20391;-58
2021/05/11 13:54:30;;;;;;;0.70;0.20;;;;;;;-142.37;100.00;59669.53;4953985;29;20037;-59
2021/05/11 14:04:51;;;;;;;0.75;0.30;;;;;;;-142.37;100.00;59669.53;4992622;28;20030;-59
2021/05/11 14:07:17;;;;;;;0.40;0.20;;;;;;;-142.37;100.00;59669.53;4991737;28;20033;-58
2021/05/11 14:09:42;;;;;;;0.32;0.32;;;;;;;-142.37;100.00;59669.53;5006501;28;20071;-59
2021/05/11 14:12:07;;;;;;;0.38;0.20;;;;;;;-142.37;100.00;59669.53;5015096;28;20029;-58
2021/05/11 14:14:33;;;;;;;0.20;0.20;;;;;;;-142.37;100.00;59669.53;5013427;28;20136;-59
2021/05/11 14:16:58;;;;;;;0.60;0.35;;;;;;;-142.37;100.00;59669.53;5015150;28;20072;-59
2021/05/11 14:19:25;;;;;;;0.38;0.20;;;;;;;-142.37;100.00;59669.53;5014428;28;20112;-58
2021/05/11 14:21:50;;;;;;;0.45;0.30;;;;;;;-142.37;100.00;59669.53;5015292;28;20469;-58
2021/05/11 14:24:15;;;;;;;1.13;0.52;;;;;;;-142.37;100.00;59669.53;5015435;28;20036;-58
2021/05/11 14:26:41;;;;;;;0.68;0.40;;;;;;;-142.37;100.00;59669.53;5013789;28;20018;-58
2021/05/11 14:29:06;;;;;;;0.60;0.30;;;;;;;-142.37;100.00;59669.53;5014245;28;20382;-59
2021/05/11 14:31:32;;;;;;;0.73;0.20;;;;;;;-142.37;100.00;59669.53;5014779;28;20101;-59
2021/05/11 14:33:57;;;;;;;1.23;0.32;;;;;;;-142.37;100.00;59669.53;5015130;28;20113;-59
2021/05/11 14:36:23;;;;;;;1.15;0.63;;;;;;;-142.37;100.00;59669.53;5015014;28;20488;-58
2021/05/11 14:38:48;;;;;;;0.43;0.20;;;;;;;-142.37;100.00;59669.53;5015117;28;20380;-59
2021/05/11 14:41:15;;;;;;;0.65;0.38;;;;;;;-142.37;100.00;59669.53;5014916;28;20026;-58
2021/05/11 14:43:42;;;;;;;0.52;0.35;;;;;;;-142.37;100.00;59669.53;5014702;28;20026;-58
2021/05/11 14:46:08;;;;;;;1.70;0.50;;;;;;;-142.37;100.00;59669.53;5014851;28;20030;-59
2021/05/11 14:48:35;;;;;;;0.30;0.22;;;;;;;-142.37;100.00;59669.53;5014111;28;20036;-59
2021/05/11 14:51:02;;;;;;;0.98;0.20;;;;;;;-142.37;100.00;59669.53;5014427;28;20053;-59
2021/05/11 14:53:28;;;;;;;0.32;0.30;;;;;;;-142.37;100.00;59669.53;5014261;28;20037;-59
2021/05/11 14:55:54;;;;;;;0.52;0.25;;;;;;;-142.37;100.00;59669.53;5014597;28;20029;-58
2021/05/11 14:58:20;;;;;;;0.95;0.55;;;;;;;-142.37;100.00;59669.53;5014271;28;20032;-58
2021/05/11 15:00:45;;;;;;;0.52;0.30;;;;;;;-142.37;100.00;59669.53;5014384;28;20034;-58
2021/05/11 15:03:14;;;;;;;0.45;0.30;;;;;;;-142.37;100.00;59669.53;5014508;28;20135;-58
2021/05/11 15:05:40;;;;;;;0.30;0.30;;;;;;;-142.37;100.00;59669.53;5014251;28;20025;-59
2021/05/11 15:08:08;;;;;;;0.93;0.40;;;;;;;-142.37;100.00;59669.53;5014293;28;20030;-58
2021/05/11 15:10:34;;;;;;;0.60;0.35;;;;;;;-142.37;100.00;59669.53;5014005;28;20030;-59
2021/05/11 15:13:00;;;;;;;0.60;0.47;;;;;;;-142.37;100.00;59669.53;5014194;28;20036;-58
2021/05/11 15:15:26;;;;;;;0.98;0.40;;;;;;;-142.37;100.00;59669.53;5014004;28;20030;-58
2021/05/11 15:20:19;;;;;;;0.47;0.30;;;;;;;-142.37;100.00;59669.53;5013844;28;20489;-59
2021/05/11 15:22:45;;;;;;;0.35;0.30;;;;;;;-142.37;100.00;59669.53;5013903;28;20026;-58
2021/05/11 15:25:10;;;;;;;0.68;0.32;;;;;;;-142.37;100.00;59669.53;5014378;28;20026;-58
2021/05/11 15:27:36;;;;;;;0.77;0.32;;;;;;;-142.37;100.00;59669.53;5013823;28;20250;-58
2021/05/11 15:30:05;;;;;;;0.68;0.40;;;;;;;-142.37;100.00;59669.53;5013985;28;20470;-59
2021/05/11 15:32:41;;;;;;;0.68;0.35;;;;;;;-142.37;100.00;59669.53;5012288;28;20420;-59
2021/05/11 15:35:10;;;;;;;0.68;0.32;;;;;;;-142.37;100.00;59669.53;5013946;28;20413;-58